sensor_id;sensor_type;location;lat;lon;timestamp;pressure;altitude;pressure_sealevel;temperature;humidity
49915;BME280;35806;47.958;13.158;2023-02-16T00:01:57;95700.28;;;0.36;54.13
49915;BME280;35806;47.958;13.158;2023-02-16T00:04:26;95699.84;;;0.27;53.67
49915;BME280;35806;47.958;13.158;2023-02-16T00:06:54;95698.35;;;0.22;53.42
49915;BME280;35806;47.958;13.158;2023-02-16T00:09:23;95698.43;;;0.46;53.34
49915;BME280;35806;47.958;13.158;2023-02-16T00:11:51;95698.33;;;0.18;53.17
49915;BME280;35806;47.958;13.158;2023-02-16T00:14:20;95697.49;;;0.02;53.25
49915;BME280;35806;47.958;13.158;2023-02-16T00:16:47;95690.46;;;-0.09;53.55
49915;BME280;35806;47.958;13.158;2023-02-16T00:19:17;95686.53;;;-0.01;53.46
49915;BME280;35806;47.958;13.158;2023-02-16T00:21:45;95686.80;;;-0.26;53.24
49915;BME280;35806;47.958;13.158;2023-02-16T00:24:12;95685.00;;;-0.54;53.15
49915;BME280;35806;47.958;13.158;2023-02-16T00:26:40;95681.04;;;-0.67;53.12
49915;BME280;35806;47.958;13.158;2023-02-16T00:29:10;95677.22;;;-0.85;53.47
49915;BME280;35806;47.958;13.158;2023-02-16T00:31:40;95674.81;;;-0.44;53.43
49915;BME280;35806;47.958;13.158;2023-02-16T00:34:25;95674.76;;;-0.46;53.44
49915;BME280;35806;47.958;13.158;2023-02-16T00:36:53;95670.33;;;-0.22;53.18
49915;BME280;35806;47.958;13.158;2023-02-16T00:39:21;95668.42;;;-0.43;53.41
49915;BME280;35806;47.958;13.158;2023-02-16T00:41:48;95666.54;;;-0.51;54.01
49915;BME280;35806;47.958;13.158;2023-02-16T00:44:18;95665.90;;;-0.82;55.03
49915;BME280;35806;47.958;13.158;2023-02-16T00:46:47;95665.81;;;-0.28;54.04
49915;BME280;35806;47.958;13.158;2023-02-16T00:49:15;95662.30;;;-0.09;52.92
49915;BME280;35806;47.958;13.158;2023-02-16T00:51:44;95665.31;;;-0.86;55.49
49915;BME280;35806;47.958;13.158;2023-02-16T00:54:11;95663.67;;;-0.92;54.93
49915;BME280;35806;47.958;13.158;2023-02-16T00:56:39;95667.83;;;-1.22;54.67
49915;BME280;35806;47.958;13.158;2023-02-16T00:59:08;95661.26;;;-1.14;54.01
49915;BME280;35806;47.958;13.158;2023-02-16T01:01:39;95654.93;;;-0.47;53.78
49915;BME280;35806;47.958;13.158;2023-02-16T01:04:08;95654.86;;;-0.94;54.14
49915;BME280;35806;47.958;13.158;2023-02-16T01:06:38;95655.43;;;-0.61;53.35
49915;BME280;35806;47.958;13.158;2023-02-16T01:09:12;95648.12;;;-0.39;52.88
49915;BME280;35806;47.958;13.158;2023-02-16T01:11:40;95648.70;;;-0.63;53.43
49915;BME280;35806;47.958;13.158;2023-02-16T01:14:10;95644.42;;;-0.67;54.03
49915;BME280;35806;47.958;13.158;2023-02-16T01:16:40;95642.71;;;-0.71;53.79
49915;BME280;35806;47.958;13.158;2023-02-16T01:19:10;95642.63;;;-0.52;53.28
49915;BME280;35806;47.958;13.158;2023-02-16T01:21:38;95637.69;;;0.32;51.41
49915;BME280;35806;47.958;13.158;2023-02-16T01:24:05;95633.45;;;-0.37;52.24
49915;BME280;35806;47.958;13.158;2023-02-16T01:26:37;95630.12;;;-0.49;52.32
49915;BME280;35806;47.958;13.158;2023-02-16T01:29:05;95626.89;;;0.02;52.40
49915;BME280;35806;47.958;13.158;2023-02-16T01:31:33;95623.94;;;0.17;51.84
49915;BME280;35806;47.958;13.158;2023-02-16T01:34:00;95624.76;;;-0.57;52.08
49915;BME280;35806;47.958;13.158;2023-02-16T01:36:30;95624.51;;;-0.03;51.67
49915;BME280;35806;47.958;13.158;2023-02-16T01:38:59;95622.03;;;-0.27;50.96
49915;BME280;35806;47.958;13.158;2023-02-16T01:41:39;95619.93;;;0.25;50.94
49915;BME280;35806;47.958;13.158;2023-02-16T01:44:13;95618.37;;;-0.45;51.43
49915;BME280;35806;47.958;13.158;2023-02-16T01:46:44;95617.54;;;-0.13;51.41
49915;BME280;35806;47.958;13.158;2023-02-16T01:49:16;95613.24;;;0.06;51.20
49915;BME280;35806;47.958;13.158;2023-02-16T01:51:50;95609.10;;;0.14;50.85
49915;BME280;35806;47.958;13.158;2023-02-16T01:54:30;95608.43;;;-0.21;50.99
49915;BME280;35806;47.958;13.158;2023-02-16T01:57:04;95607.02;;;-0.50;51.27
49915;BME280;35806;47.958;13.158;2023-02-16T01:59:40;95604.60;;;-0.41;51.23
49915;BME280;35806;47.958;13.158;2023-02-16T02:15:57;95593.78;;;-0.09;51.11
49915;BME280;35806;47.958;13.158;2023-02-16T02:18:25;95597.17;;;-0.73;51.55
49915;BME280;35806;47.958;13.158;2023-02-16T02:21:08;95594.86;;;0.13;51.26
49915;BME280;35806;47.958;13.158;2023-02-16T02:23:51;95592.53;;;0.14;50.18
49915;BME280;35806;47.958;13.158;2023-02-16T02:26:48;95591.25;;;0.33;49.63
49915;BME280;35806;47.958;13.158;2023-02-16T02:29:33;95592.15;;;0.11;49.47
49915;BME280;35806;47.958;13.158;2023-02-16T02:32:14;95587.31;;;0.21;48.84
49915;BME280;35806;47.958;13.158;2023-02-16T02:34:57;95584.21;;;0.56;48.39
49915;BME280;35806;47.958;13.158;2023-02-16T02:37:33;95584.50;;;0.24;49.16
49915;BME280;35806;47.958;13.158;2023-02-16T02:40:07;95584.56;;;0.16;48.87
49915;BME280;35806;47.958;13.158;2023-02-16T02:42:43;95586.41;;;-0.13;49.25
49915;BME280;35806;47.958;13.158;2023-02-16T02:45:16;95587.78;;;-0.03;49.35
49915;BME280;35806;47.958;13.158;2023-02-16T02:47:47;95592.87;;;-0.12;50.51
49915;BME280;35806;47.958;13.158;2023-02-16T02:50:49;95588.58;;;-0.41;50.52
49915;BME280;35806;47.958;13.158;2023-02-16T02:53:17;95587.41;;;-0.15;49.29
49915;BME280;35806;47.958;13.158;2023-02-16T02:55:47;95588.12;;;-0.60;49.29
49915;BME280;35806;47.958;13.158;2023-02-16T02:58:16;95588.79;;;-0.36;49.54
49915;BME280;35806;47.958;13.158;2023-02-16T03:00:45;95587.25;;;-0.53;50.05
49915;BME280;35806;47.958;13.158;2023-02-16T03:03:18;95589.12;;;-0.94;50.21
49915;BME280;35806;47.958;13.158;2023-02-16T03:05:51;95588.53;;;-0.75;50.20
49915;BME280;35806;47.958;13.158;2023-02-16T03:08:23;95593.51;;;-0.93;50.48
49915;BME280;35806;47.958;13.158;2023-02-16T03:10:54;95585.97;;;-0.42;49.51
49915;BME280;35806;47.958;13.158;2023-02-16T03:13:26;95581.97;;;-0.38;49.67
49915;BME280;35806;47.958;13.158;2023-02-16T03:15:56;95582.86;;;-1.03;51.02
49915;BME280;35806;47.958;13.158;2023-02-16T03:18:26;95578.56;;;-0.90;52.05
49915;BME280;35806;47.958;13.158;2023-02-16T03:20:54;95576.79;;;-1.35;53.63
49915;BME280;35806;47.958;13.158;2023-02-16T03:23:22;95576.32;;;-1.08;53.01
49915;BME280;35806;47.958;13.158;2023-02-16T03:25:51;95577.74;;;-0.86;52.82
49915;BME280;35806;47.958;13.158;2023-02-16T03:28:21;95577.03;;;-1.54;53.48
49915;BME280;35806;47.958;13.158;2023-02-16T03:30:51;95577.45;;;-1.76;53.41
49915;BME280;35806;47.958;13.158;2023-02-16T03:33:21;95576.37;;;-1.46;52.85
49915;BME280;35806;47.958;13.158;2023-02-16T03:35:50;95572.08;;;-1.94;53.31
49915;BME280;35806;47.958;13.158;2023-02-16T03:38:17;95570.31;;;-1.81;53.96
49915;BME280;35806;47.958;13.158;2023-02-16T03:40:47;95566.92;;;-1.62;52.93
49915;BME280;35806;47.958;13.158;2023-02-16T03:43:15;95568.95;;;-0.85;52.14
49915;BME280;35806;47.958;13.158;2023-02-16T03:45:43;95567.11;;;-1.86;53.57
49915;BME280;35806;47.958;13.158;2023-02-16T03:48:11;95568.06;;;-1.85;53.53
49915;BME280;35806;47.958;13.158;2023-02-16T03:50:39;95568.11;;;-2.08;54.19
49915;BME280;35806;47.958;13.158;2023-02-16T03:53:05;95566.70;;;-1.32;52.82
49915;BME280;35806;47.958;13.158;2023-02-16T03:55:33;95568.11;;;-2.00;53.33
49915;BME280;35806;47.958;13.158;2023-02-16T03:58:01;95567.57;;;-1.99;52.94
49915;BME280;35806;47.958;13.158;2023-02-16T04:00:28;95566.81;;;-1.89;52.89
49915;BME280;35806;47.958;13.158;2023-02-16T04:02:56;95565.21;;;-2.41;53.86
49915;BME280;35806;47.958;13.158;2023-02-16T04:05:24;95570.27;;;-1.82;52.71
49915;BME280;35806;47.958;13.158;2023-02-16T04:07:51;95575.68;;;-1.89;52.74
49915;BME280;35806;47.958;13.158;2023-02-16T04:10:18;95578.81;;;-2.14;53.34
49915;BME280;35806;47.958;13.158;2023-02-16T04:12:46;95579.90;;;-1.88;53.57
49915;BME280;35806;47.958;13.158;2023-02-16T04:15:16;95580.46;;;-0.86;51.83
49915;BME280;35806;47.958;13.158;2023-02-16T04:17:44;95581.27;;;-1.69;53.23
49915;BME280;35806;47.958;13.158;2023-02-16T04:20:14;95584.44;;;-1.26;52.62
49915;BME280;35806;47.958;13.158;2023-02-16T04:22:41;95589.14;;;-1.25;53.29
49915;BME280;35806;47.958;13.158;2023-02-16T04:25:09;95587.41;;;-0.85;51.57
49915;BME280;35806;47.958;13.158;2023-02-16T04:27:37;95592.78;;;-0.86;52.75
49915;BME280;35806;47.958;13.158;2023-02-16T04:30:06;95592.00;;;-1.04;52.91
49915;BME280;35806;47.958;13.158;2023-02-16T04:32:34;95592.10;;;-0.95;52.14
49915;BME280;35806;47.958;13.158;2023-02-16T04:35:01;95594.65;;;-0.57;51.65
49915;BME280;35806;47.958;13.158;2023-02-16T04:37:28;95597.13;;;-1.08;52.45
49915;BME280;35806;47.958;13.158;2023-02-16T04:39:55;95600.63;;;-0.76;52.27
49915;BME280;35806;47.958;13.158;2023-02-16T04:42:23;95597.09;;;-1.16;52.27
49915;BME280;35806;47.958;13.158;2023-02-16T04:44:50;95603.21;;;-1.46;52.25
49915;BME280;35806;47.958;13.158;2023-02-16T04:47:18;95607.06;;;-1.39;52.37
49915;BME280;35806;47.958;13.158;2023-02-16T04:49:45;95604.73;;;-1.31;51.95
49915;BME280;35806;47.958;13.158;2023-02-16T04:52:13;95605.19;;;-0.88;50.70
49915;BME280;35806;47.958;13.158;2023-02-16T04:54:40;95605.40;;;-1.13;50.92
49915;BME280;35806;47.958;13.158;2023-02-16T04:57:07;95609.87;;;-0.97;50.97
49915;BME280;35806;47.958;13.158;2023-02-16T04:59:36;95612.12;;;-1.80;51.76
49915;BME280;35806;47.958;13.158;2023-02-16T05:02:03;95612.40;;;-1.64;51.52
49915;BME280;35806;47.958;13.158;2023-02-16T05:04:31;95613.63;;;-0.66;50.69
49915;BME280;35806;47.958;13.158;2023-02-16T05:06:57;95617.06;;;-2.45;53.94
49915;BME280;35806;47.958;13.158;2023-02-16T05:09:25;95616.60;;;-1.76;52.86
49915;BME280;35806;47.958;13.158;2023-02-16T05:11:53;95615.36;;;-1.92;52.73
49915;BME280;35806;47.958;13.158;2023-02-16T05:14:22;95614.75;;;-2.00;52.47
49915;BME280;35806;47.958;13.158;2023-02-16T05:16:50;95614.97;;;-2.00;52.57
49915;BME280;35806;47.958;13.158;2023-02-16T05:19:18;95613.08;;;-2.25;53.28
49915;BME280;35806;47.958;13.158;2023-02-16T05:21:45;95612.71;;;-1.81;53.12
49915;BME280;35806;47.958;13.158;2023-02-16T05:24:11;95611.02;;;-2.06;53.91
49915;BME280;35806;47.958;13.158;2023-02-16T05:26:38;95615.08;;;-1.77;53.15
49915;BME280;35806;47.958;13.158;2023-02-16T05:29:06;95616.53;;;-1.95;53.61
49915;BME280;35806;47.958;13.158;2023-02-16T05:31:34;95617.70;;;-1.98;53.71
49915;BME280;35806;47.958;13.158;2023-02-16T05:34:02;95624.39;;;-1.83;53.14
49915;BME280;35806;47.958;13.158;2023-02-16T05:36:29;95627.39;;;-1.83;53.14
49915;BME280;35806;47.958;13.158;2023-02-16T05:38:57;95634.30;;;-2.09;53.96
49915;BME280;35806;47.958;13.158;2023-02-16T05:41:24;95634.12;;;-1.55;53.43
49915;BME280;35806;47.958;13.158;2023-02-16T05:43:53;95633.17;;;-1.50;53.74
49915;BME280;35806;47.958;13.158;2023-02-16T05:46:21;95635.52;;;-1.56;53.20
49915;BME280;35806;47.958;13.158;2023-02-16T05:48:49;95640.06;;;-1.06;52.52
49915;BME280;35806;47.958;13.158;2023-02-16T05:51:17;95645.15;;;-1.12;52.21
49915;BME280;35806;47.958;13.158;2023-02-16T05:53:44;95649.30;;;-0.94;52.54
49915;BME280;35806;47.958;13.158;2023-02-16T05:56:12;95652.31;;;-0.87;52.32
49915;BME280;35806;47.958;13.158;2023-02-16T05:58:40;95655.41;;;-1.62;54.96
49915;BME280;35806;47.958;13.158;2023-02-16T06:01:07;95657.54;;;-1.66;55.10
49915;BME280;35806;47.958;13.158;2023-02-16T06:03:34;95663.22;;;-1.63;54.68
49915;BME280;35806;47.958;13.158;2023-02-16T06:06:03;95667.29;;;-1.22;54.62
49915;BME280;35806;47.958;13.158;2023-02-16T06:08:32;95670.20;;;-0.97;53.87
49915;BME280;35806;47.958;13.158;2023-02-16T06:10:59;95675.53;;;-1.31;53.93
49915;BME280;35806;47.958;13.158;2023-02-16T06:13:27;95679.66;;;-0.93;52.91
49915;BME280;35806;47.958;13.158;2023-02-16T06:15:56;95684.10;;;-0.68;52.41
49915;BME280;35806;47.958;13.158;2023-02-16T06:18:24;95690.41;;;-0.80;52.39
49915;BME280;35806;47.958;13.158;2023-02-16T06:20:52;95693.82;;;-0.67;52.75
49915;BME280;35806;47.958;13.158;2023-02-16T06:23:22;95699.48;;;-0.56;52.42
49915;BME280;35806;47.958;13.158;2023-02-16T06:25:50;95702.57;;;-0.77;52.88
49915;BME280;35806;47.958;13.158;2023-02-16T06:28:17;95701.19;;;-0.72;52.19
49915;BME280;35806;47.958;13.158;2023-02-16T06:30:44;95705.70;;;-0.34;51.49
49915;BME280;35806;47.958;13.158;2023-02-16T06:33:12;95702.87;;;-0.27;51.56
49915;BME280;35806;47.958;13.158;2023-02-16T06:35:40;95696.07;;;-0.26;51.67
49915;BME280;35806;47.958;13.158;2023-02-16T06:38:08;95702.79;;;-0.32;51.80
49915;BME280;35806;47.958;13.158;2023-02-16T06:40:35;95706.04;;;-0.15;51.60
49915;BME280;35806;47.958;13.158;2023-02-16T06:43:02;95707.57;;;-0.57;52.14
49915;BME280;35806;47.958;13.158;2023-02-16T06:45:29;95705.00;;;-0.58;51.95
49915;BME280;35806;47.958;13.158;2023-02-16T06:47:57;95706.30;;;-0.51;51.73
49915;BME280;35806;47.958;13.158;2023-02-16T06:50:23;95704.47;;;0.00;51.13
49915;BME280;35806;47.958;13.158;2023-02-16T06:52:51;95708.21;;;0.11;51.33
49915;BME280;35806;47.958;13.158;2023-02-16T06:55:18;95711.75;;;0.44;50.80
49915;BME280;35806;47.958;13.158;2023-02-16T06:57:46;95716.84;;;0.47;51.09
49915;BME280;35806;47.958;13.158;2023-02-16T07:00:15;95719.99;;;0.47;50.91
49915;BME280;35806;47.958;13.158;2023-02-16T07:02:42;95718.93;;;0.84;50.47
49915;BME280;35806;47.958;13.158;2023-02-16T07:05:09;95712.20;;;0.45;50.82
49915;BME280;35806;47.958;13.158;2023-02-16T07:07:36;95711.31;;;0.75;51.01
49915;BME280;35806;47.958;13.158;2023-02-16T07:10:05;95713.90;;;0.62;50.79
49915;BME280;35806;47.958;13.158;2023-02-16T07:12:33;95716.68;;;1.07;50.37
49915;BME280;35806;47.958;13.158;2023-02-16T07:15:01;95717.39;;;0.95;50.17
49915;BME280;35806;47.958;13.158;2023-02-16T07:17:29;95716.13;;;0.95;49.88
49915;BME280;35806;47.958;13.158;2023-02-16T07:19:56;95719.24;;;1.01;49.49
49915;BME280;35806;47.958;13.158;2023-02-16T07:22:23;95718.63;;;1.10;49.29
49915;BME280;35806;47.958;13.158;2023-02-16T07:24:51;95718.74;;;1.08;49.62
49915;BME280;35806;47.958;13.158;2023-02-16T07:27:18;95714.60;;;1.05;49.77
49915;BME280;35806;47.958;13.158;2023-02-16T07:29:44;95716.14;;;0.95;49.55
49915;BME280;35806;47.958;13.158;2023-02-16T07:32:11;95716.77;;;1.02;49.65
49915;BME280;35806;47.958;13.158;2023-02-16T07:34:38;95710.25;;;1.26;49.47
49915;BME280;35806;47.958;13.158;2023-02-16T07:37:06;95711.69;;;1.55;49.00
49915;BME280;35806;47.958;13.158;2023-02-16T07:39:33;95718.30;;;1.22;49.35
49915;BME280;35806;47.958;13.158;2023-02-16T07:42:01;95717.07;;;1.45;48.71
49915;BME280;35806;47.958;13.158;2023-02-16T07:44:29;95714.45;;;2.11;48.40
49915;BME280;35806;47.958;13.158;2023-02-16T07:46:57;95717.49;;;2.08;47.93
49915;BME280;35806;47.958;13.158;2023-02-16T07:49:24;95717.39;;;2.15;48.41
49915;BME280;35806;47.958;13.158;2023-02-16T07:51:52;95719.43;;;2.17;47.76
49915;BME280;35806;47.958;13.158;2023-02-16T07:54:19;95721.30;;;1.73;48.55
49915;BME280;35806;47.958;13.158;2023-02-16T07:56:47;95716.43;;;1.62;49.28
49915;BME280;35806;47.958;13.158;2023-02-16T07:59:14;95713.03;;;0.72;50.54
49915;BME280;35806;47.958;13.158;2023-02-16T08:01:42;95718.09;;;0.52;52.03
49915;BME280;35806;47.958;13.158;2023-02-16T08:04:09;95720.05;;;0.01;53.04
49915;BME280;35806;47.958;13.158;2023-02-16T08:06:37;95720.51;;;0.08;53.28
49915;BME280;35806;47.958;13.158;2023-02-16T08:09:05;95714.38;;;0.37;52.62
49915;BME280;35806;47.958;13.158;2023-02-16T08:11:32;95711.92;;;2.15;48.97
49915;BME280;35806;47.958;13.158;2023-02-16T08:14:00;95714.05;;;1.81;48.61
49915;BME280;35806;47.958;13.158;2023-02-16T08:16:28;95712.74;;;3.27;45.82
49915;BME280;35806;47.958;13.158;2023-02-16T08:18:58;95717.27;;;2.85;46.11
49915;BME280;35806;47.958;13.158;2023-02-16T08:21:28;95720.21;;;2.34;46.25
49915;BME280;35806;47.958;13.158;2023-02-16T08:23:57;95724.59;;;4.72;42.12
49915;BME280;35806;47.958;13.158;2023-02-16T08:26:26;95725.36;;;4.20;42.78
49915;BME280;35806;47.958;13.158;2023-02-16T08:28:56;95723.92;;;4.86;43.29
49915;BME280;35806;47.958;13.158;2023-02-16T08:31:25;95722.00;;;5.23;41.63
49915;BME280;35806;47.958;13.158;2023-02-16T08:33:54;95720.11;;;4.97;40.69
49915;BME280;35806;47.958;13.158;2023-02-16T08:36:24;95724.57;;;4.71;41.23
49915;BME280;35806;47.958;13.158;2023-02-16T08:38:52;95721.83;;;5.05;40.53
49915;BME280;35806;47.958;13.158;2023-02-16T08:41:23;95725.41;;;4.79;40.57
49915;BME280;35806;47.958;13.158;2023-02-16T08:43:51;95728.98;;;4.96;40.78
49915;BME280;35806;47.958;13.158;2023-02-16T08:46:18;95728.66;;;3.59;44.13
49915;BME280;35806;47.958;13.158;2023-02-16T08:48:45;95727.86;;;5.27;41.27
49915;BME280;35806;47.958;13.158;2023-02-16T08:51:13;95731.83;;;4.60;42.79
49915;BME280;35806;47.958;13.158;2023-02-16T08:53:46;95733.15;;;4.28;43.27
49915;BME280;35806;47.958;13.158;2023-02-16T08:56:14;95730.42;;;4.83;42.60
49915;BME280;35806;47.958;13.158;2023-02-16T08:58:41;95729.19;;;5.70;40.71
49915;BME280;35806;47.958;13.158;2023-02-16T09:01:09;95725.30;;;6.15;39.59
49915;BME280;35806;47.958;13.158;2023-02-16T09:03:38;95726.45;;;5.99;41.46
49915;BME280;35806;47.958;13.158;2023-02-16T09:06:06;95721.06;;;6.43;39.39
49915;BME280;35806;47.958;13.158;2023-02-16T09:08:33;95725.52;;;5.64;40.06
49915;BME280;35806;47.958;13.158;2023-02-16T09:11:01;95716.45;;;6.71;38.54
49915;BME280;35806;47.958;13.158;2023-02-16T09:13:30;95719.01;;;6.32;38.65
49915;BME280;35806;47.958;13.158;2023-02-16T09:16:01;95719.82;;;6.28;38.91
49915;BME280;35806;47.958;13.158;2023-02-16T09:18:29;95725.71;;;6.38;38.53
49915;BME280;35806;47.958;13.158;2023-02-16T09:20:57;95727.89;;;7.45;37.60
49915;BME280;35806;47.958;13.158;2023-02-16T09:23:24;95728.67;;;7.66;37.81
49915;BME280;35806;47.958;13.158;2023-02-16T09:25:58;95729.93;;;7.79;37.07
49915;BME280;35806;47.958;13.158;2023-02-16T09:28:25;95732.10;;;7.12;37.65
49915;BME280;35806;47.958;13.158;2023-02-16T09:30:53;95734.28;;;8.14;36.40
49915;BME280;35806;47.958;13.158;2023-02-16T09:33:20;95734.16;;;7.71;37.44
49915;BME280;35806;47.958;13.158;2023-02-16T09:35:48;95739.19;;;7.78;37.54
49915;BME280;35806;47.958;13.158;2023-02-16T09:38:15;95739.77;;;7.23;38.80
49915;BME280;35806;47.958;13.158;2023-02-16T09:40:43;95740.66;;;7.91;38.42
49915;BME280;35806;47.958;13.158;2023-02-16T09:43:18;95740.18;;;7.89;37.06
49915;BME280;35806;47.958;13.158;2023-02-16T09:45:52;95740.53;;;8.10;37.06
49915;BME280;35806;47.958;13.158;2023-02-16T09:48:27;95743.22;;;7.89;36.82
49915;BME280;35806;47.958;13.158;2023-02-16T09:50:58;95745.05;;;8.75;36.69
49915;BME280;35806;47.958;13.158;2023-02-16T09:53:32;95745.72;;;8.88;35.58
49915;BME280;35806;47.958;13.158;2023-02-16T09:56:12;95747.97;;;9.04;35.98
49915;BME280;35806;47.958;13.158;2023-02-16T09:58:47;95751.55;;;8.99;35.34
49915;BME280;35806;47.958;13.158;2023-02-16T10:01:21;95755.93;;;9.10;36.05
49915;BME280;35806;47.958;13.158;2023-02-16T10:03:57;95755.46;;;9.07;35.40
49915;BME280;35806;47.958;13.158;2023-02-16T10:06:42;95750.98;;;9.25;34.72
49915;BME280;35806;47.958;13.158;2023-02-16T10:09:16;95753.03;;;8.41;35.37
49915;BME280;35806;47.958;13.158;2023-02-16T10:11:46;95750.58;;;8.18;35.17
49915;BME280;35806;47.958;13.158;2023-02-16T10:14:30;95752.16;;;7.51;36.08
49915;BME280;35806;47.958;13.158;2023-02-16T10:17:10;95750.36;;;7.84;36.26
49915;BME280;35806;47.958;13.158;2023-02-16T10:19:45;95754.51;;;6.09;40.11
49915;BME280;35806;47.958;13.158;2023-02-16T10:22:15;95747.98;;;6.27;40.52
49915;BME280;35806;47.958;13.158;2023-02-16T10:24:51;95742.96;;;7.41;38.06
49915;BME280;35806;47.958;13.158;2023-02-16T10:27:21;95744.29;;;7.94;37.43
49915;BME280;35806;47.958;13.158;2023-02-16T10:29:49;95742.96;;;7.55;38.97
49915;BME280;35806;47.958;13.158;2023-02-16T10:32:24;95746.28;;;7.54;38.55
49915;BME280;35806;47.958;13.158;2023-02-16T10:34:59;95747.46;;;6.57;38.66
49915;BME280;35806;47.958;13.158;2023-02-16T10:37:43;95744.53;;;6.82;40.88
49915;BME280;35806;47.958;13.158;2023-02-16T10:40:25;95739.48;;;7.15;40.13
49915;BME280;35806;47.958;13.158;2023-02-16T10:43:02;95735.23;;;8.36;38.41
49915;BME280;35806;47.958;13.158;2023-02-16T10:45:35;95739.22;;;6.78;41.34
49915;BME280;35806;47.958;13.158;2023-02-16T10:48:07;95733.34;;;5.49;44.23
49915;BME280;35806;47.958;13.158;2023-02-16T10:50:38;95729.94;;;6.45;40.76
49915;BME280;35806;47.958;13.158;2023-02-16T10:53:14;95729.85;;;6.22;41.54
49915;BME280;35806;47.958;13.158;2023-02-16T10:55:43;95723.08;;;6.89;42.60
49915;BME280;35806;47.958;13.158;2023-02-16T10:58:18;95722.29;;;7.74;39.81
49915;BME280;35806;47.958;13.158;2023-02-16T11:00:51;95717.92;;;6.93;39.00
49915;BME280;35806;47.958;13.158;2023-02-16T11:03:24;95714.93;;;6.99;39.66
49915;BME280;35806;47.958;13.158;2023-02-16T11:05:53;95711.04;;;7.41;39.74
49915;BME280;35806;47.958;13.158;2023-02-16T11:08:21;95708.43;;;6.97;39.40
49915;BME280;35806;47.958;13.158;2023-02-16T11:10:50;95708.16;;;7.18;39.53
49915;BME280;35806;47.958;13.158;2023-02-16T11:13:25;95702.72;;;7.03;38.90
49915;BME280;35806;47.958;13.158;2023-02-16T11:15:55;95702.78;;;7.04;40.24
49915;BME280;35806;47.958;13.158;2023-02-16T11:18:31;95702.97;;;7.83;39.05
49915;BME280;35806;47.958;13.158;2023-02-16T11:21:00;95702.16;;;7.68;36.94
49915;BME280;35806;47.958;13.158;2023-02-16T11:23:29;95701.77;;;9.05;38.95
49915;BME280;35806;47.958;13.158;2023-02-16T11:26:00;95699.59;;;8.74;35.43
49915;BME280;35806;47.958;13.158;2023-02-16T11:28:34;95694.47;;;8.34;35.12
49915;BME280;35806;47.958;13.158;2023-02-16T11:31:11;95694.84;;;7.91;36.88
49915;BME280;35806;47.958;13.158;2023-02-16T11:33:41;95694.66;;;8.52;36.35
49915;BME280;35806;47.958;13.158;2023-02-16T11:36:29;95695.96;;;7.93;37.17
49915;BME280;35806;47.958;13.158;2023-02-16T11:39:01;95693.86;;;7.31;38.31
49915;BME280;35806;47.958;13.158;2023-02-16T11:41:30;95694.83;;;7.79;37.95
49915;BME280;35806;47.958;13.158;2023-02-16T11:43:58;95695.71;;;7.47;38.59
49915;BME280;35806;47.958;13.158;2023-02-16T11:46:27;95690.70;;;7.36;38.03
49915;BME280;35806;47.958;13.158;2023-02-16T11:49:20;95690.37;;;7.44;38.72
49915;BME280;35806;47.958;13.158;2023-02-16T11:52:26;95686.98;;;8.56;36.80
49915;BME280;35806;47.958;13.158;2023-02-16T11:54:57;95677.84;;;9.03;36.29
49915;BME280;35806;47.958;13.158;2023-02-16T11:57:26;95676.12;;;8.72;36.94
49915;BME280;35806;47.958;13.158;2023-02-16T11:59:55;95673.44;;;7.77;37.67
49915;BME280;35806;47.958;13.158;2023-02-16T12:03:44;95664.70;;;9.12;36.79
49915;BME280;35806;47.958;13.158;2023-02-16T12:06:28;95662.64;;;8.87;36.49
49915;BME280;35806;47.958;13.158;2023-02-16T12:09:15;95658.88;;;8.84;36.80
49915;BME280;35806;47.958;13.158;2023-02-16T12:11:51;95649.70;;;9.53;35.98
49915;BME280;35806;47.958;13.158;2023-02-16T12:14:34;95650.51;;;9.69;36.43
49915;BME280;35806;47.958;13.158;2023-02-16T12:17:17;95647.32;;;10.34;33.90
49915;BME280;35806;47.958;13.158;2023-02-16T12:19:47;95643.84;;;10.67;34.27
49915;BME280;35806;47.958;13.158;2023-02-16T12:22:27;95649.45;;;9.90;35.21
49915;BME280;35806;47.958;13.158;2023-02-16T12:25:04;95646.35;;;10.20;35.85
49915;BME280;35806;47.958;13.158;2023-02-16T12:27:48;95641.58;;;9.65;34.74
49915;BME280;35806;47.958;13.158;2023-02-16T12:30:27;95636.26;;;10.72;35.35
49915;BME280;35806;47.958;13.158;2023-02-16T12:33:19;95628.94;;;11.13;33.33
49915;BME280;35806;47.958;13.158;2023-02-16T12:36:01;95631.39;;;9.53;34.50
49915;BME280;35806;47.958;13.158;2023-02-16T12:38:45;95624.56;;;10.34;35.40
49915;BME280;35806;47.958;13.158;2023-02-16T12:41:24;95620.94;;;10.75;33.27
49915;BME280;35806;47.958;13.158;2023-02-16T12:44:02;95621.64;;;9.95;34.70
49915;BME280;35806;47.958;13.158;2023-02-16T12:46:36;95625.93;;;8.69;37.31
49915;BME280;35806;47.958;13.158;2023-02-16T12:49:13;95618.23;;;10.38;34.75
49915;BME280;35806;47.958;13.158;2023-02-16T12:51:44;95611.08;;;10.98;33.97
49915;BME280;35806;47.958;13.158;2023-02-16T12:54:18;95613.22;;;8.46;36.46
49915;BME280;35806;47.958;13.158;2023-02-16T12:56:52;95606.48;;;8.95;37.37
49915;BME280;35806;47.958;13.158;2023-02-16T12:59:31;95597.56;;;10.06;35.63
49915;BME280;35806;47.958;13.158;2023-02-16T13:02:04;95595.16;;;10.14;36.69
49915;BME280;35806;47.958;13.158;2023-02-16T13:04:41;95597.80;;;10.25;35.19
49915;BME280;35806;47.958;13.158;2023-02-16T13:07:15;95593.11;;;11.04;33.36
49915;BME280;35806;47.958;13.158;2023-02-16T13:09:52;95586.59;;;11.53;34.75
49915;BME280;35806;47.958;13.158;2023-02-16T13:12:28;95585.05;;;11.08;32.60
49915;BME280;35806;47.958;13.158;2023-02-16T13:15:03;95580.62;;;11.41;33.11
49915;BME280;35806;47.958;13.158;2023-02-16T13:17:34;95582.82;;;11.50;32.37
49915;BME280;35806;47.958;13.158;2023-02-16T13:20:05;95582.51;;;11.97;32.50
49915;BME280;35806;47.958;13.158;2023-02-16T13:22:47;95577.00;;;11.58;33.58
49915;BME280;35806;47.958;13.158;2023-02-16T13:26:06;95572.43;;;12.80;31.42
49915;BME280;35806;47.958;13.158;2023-02-16T13:28:47;95570.53;;;12.48;31.31
49915;BME280;35806;47.958;13.158;2023-02-16T13:31:33;95560.33;;;13.06;30.46